Webcam op het Zuiden Meer informatie Webcam op het Zuiden


Webcam op het Westen Meer informatie Webcam op het Westen


Onweer radar Meer informatie blitzortung!


Regen radar  rain snow radar


Lokaal brand risico:
CBI


Regionaal brand risico: Meer informatie


Lokaal brand risico:
Gebaseerd op actuele waarde
CBI


Bezoek ook deze websites:

Template documentation
and downloads

And another site



Het weer levert geen direct gevaar op.    Er zijn geen waarschuwingen afgegeven.

METAR rapporten vliegvelden

   
ETWM - Meppen, Germany
Afstand tot: O 29 km
Gewijzigd: 03-04-2020 09:20
  
  
   Wind: Westen 11.1 km/h
Wind: Westen 11.1 km/h
Temperatuur: 7°C
Voelt als: 5°C
Dauwpunt: 0°C
Vochtigheid: 61%
Barometer: 1013 hPa
ETWM 030720Z AUTO 27006KT //// // ////// 07/00 Q1013 ///
EHGG - Groningen/Eelde, Netherlands
Afstand tot: NNW 47 km
Gewijzigd: 03-04-2020 09:55
Lichte (mot)regen, Grotendeels bewolkt  
Lichte (mot)regen, Grotendeels bewolkt  
   Wind: Westen 11.1 km/h
Wind: Westen 11.1 km/h
Temperatuur: 7°C
Voelt als: 5°C
Dauwpunt: 3°C
Vochtigheid: 76%
Barometer: 1013 hPa
Bewolking: Grotendeels bewolkt
Zicht: meer dan 10 km
Bewolking: Licht bewolkt 700 ft,
Gedeeltelijk bewolkt 2600 ft,
Grotendeels bewolkt 4600 ft
EHGG 030755Z AUTO 26006KT 230V300 9999 -DZ FEW007 SCT026 BKN046 07/03 Q1013 TEMPO 7000 -SHRA FEW030TCU
EDDG - Muenster/Osnabru, Germany
Afstand tot: ZO 87 km
Gewijzigd: 03-04-2020 09:50
Licht bewolkt  
Licht bewolkt  
   Wind: WNW 7.4 km/h
Wind: WNW 7.4 km/h
Temperatuur: 7°C
Voelt als: 6°C
Dauwpunt: 1°C
Vochtigheid: 66%
Barometer: 1014 hPa
Bewolking: Licht bewolkt
Zicht: meer dan 10 km
Bewolking: Licht bewolkt 4000 ft
EDDG 030750Z 29004KT 260V350 9999 FEW040 07/01 Q1014 NOSIG
EHLW - Leeuwarden Rnlaf, Netherlands
Afstand tot: NW 93 km
Gewijzigd: 03-04-2020 09:59
Grotendeels bewolkt  
Grotendeels bewolkt  
   Wind: Noorden 14.8 km/h
Wind: Noorden 14.8 km/h
Temperatuur: 6°C
Voelt als: 3°C
Dauwpunt: 2°C
Vochtigheid: 76%
Barometer: 1013 hPa
Bewolking: Grotendeels bewolkt
Zicht: meer dan 10 km
Bewolking: Licht bewolkt 2300 ft,
Grotendeels bewolkt 2600 ft,
Grotendeels bewolkt 3100 ft
EHLW 030759Z AUTO 36008KT 9999 FEW023 BKN026 BKN031 06/02 Q1013 BLU 28006KT 9999 SCT023
ETNT - Wittmundhaven(Ga, Germany
Afstand tot: NNO 100 km
Gewijzigd: 03-04-2020 09:20
Licht bewolkt  
Licht bewolkt  
   Wind: WNW 24.1 km/h
Wind: WNW 24.1 km/h
Temperatuur: 6°C
Voelt als: 2°C
Dauwpunt: -3°C
Vochtigheid: 53%
Barometer: 1012 hPa
Bewolking: Licht bewolkt
Zicht: meer dan 10 km
Bewolking: Licht bewolkt 3500 ft
ETNT 030720Z 30013KT 9999 FEW035 06/M03 Q1012 BLU+BLU+
ETND - Diepholz (ger-Af, Germany
Afstand tot: O 104 km
Gewijzigd: 03-04-2020 09:20
Grotendeels bewolkt  
Grotendeels bewolkt  
   Wind: WNW 11.1 km/h
Wind: WNW 11.1 km/h
Temperatuur: 6°C
Voelt als: 4°C
Dauwpunt: 1°C
Vochtigheid: 71%
Barometer: 1013 hPa
Bewolking: Grotendeels bewolkt
Zicht: meer dan 10 km
Bewolking: Grotendeels bewolkt 7000 ft
ETND 030720Z 29006KT 9999 BKN070 06/01 Q1013 BLU
ETNT - Wittmundhaven(Ga, Germany
Afstand tot: NNO 102 km
Gewijzigd: 03-04-2020 09:20
Licht bewolkt  
Licht bewolkt  
   Wind: WNW 24.1 km/h
Wind: WNW 24.1 km/h
Temperatuur: 6°C
Voelt als: 2°C
Dauwpunt: -3°C
Vochtigheid: 53%
Barometer: 1012 hPa
Bewolking: Licht bewolkt
Zicht: meer dan 10 km
Bewolking: Licht bewolkt 3500 ft
ETNT 030720Z 30013KT 9999 FEW035 06/M03 Q1012 BLU+BLU+
EHDL - Deelen Rnlafb, Netherlands
Afstand tot: ZW 103 km
Gewijzigd: 03-04-2020 09:55
Bewolking  
Bewolking  
   Wind: varieert 1.9 km/h
Wind: varieert 1.9 km/h
Temperatuur: 7°C
Dauwpunt: 5°C
Vochtigheid: 87%
Barometer: 1014 hPa
Bewolking: Bewolking
Zicht: meer dan 10 km
Bewolking: Bewolking 5900 ft
EHDL 030755Z AUTO VRB01KT 9999 OVC059 07/05 Q1014 BLU
EHMA - Awg-1 Sea, Netherlands
Afstand tot: NW 105 km
Gewijzigd: 03-04-2020 09:55
Gedeeltelijk bewolkt  
Gedeeltelijk bewolkt  
   Wind: WNW 22.2 km/h
Wind: WNW 22.2 km/h
Temperatuur: 7°C
Voelt als: 3°C
Dauwpunt: -1°C
Vochtigheid: 57%
Barometer: 1013 hPa
Bewolking: Gedeeltelijk bewolkt
Zicht: meer dan 10 km
Bewolking: Licht bewolkt 3000 ft,
Gedeeltelijk bewolkt 3900 ft
EHMA 030755Z AUTO 30012KT 9999 FEW030 SCT039 07/M01 Q1013
EDDW - Bremen, Germany
Afstand tot: ONO 135 km
Gewijzigd: 03-04-2020 09:50
Licht bewolkt  
Licht bewolkt  
   Wind: WNW 27.8 km/h
Wind: WNW 27.8 km/h
Temperatuur: 7°C
Voelt als: 3°C
Dauwpunt: -1°C
Vochtigheid: 57%
Barometer: 1012 hPa
Bewolking: Licht bewolkt
Zicht: meer dan 10 km
Bewolking: Licht bewolkt 3800 ft
EDDW 030750Z 30015KT 9999 FEW038 07/M01 Q1012 TEMPO 30015G25KT
EHVL - Vlieland Island, Netherlands
Afstand tot: WNW 138 km
Gewijzigd: 03-04-2020 09:57
Bewolking  
Bewolking  
   Wind: Westen 18.5 km/h
Wind: Westen 18.5 km/h
Temperatuur: 7°C
Voelt als: 4°C
Dauwpunt: 2°C
Vochtigheid: 71%
Barometer: 1013 hPa
Bewolking: Bewolking
Zicht: meer dan 10 km
Bewolking: Gedeeltelijk bewolkt 2000 ft,
Grotendeels bewolkt 4700 ft,
Bewolking 5600 ft
EHVL 030757Z AUTO 28010KT 260V330 9999 SCT020 BKN047 OVC056 07/02 Q1013 WHT
EDLV - Niederrhein, Germany
Afstand tot: ZZW 139 km
Gewijzigd: 02-04-2020 17:20
Verouderd
Grotendeels bewolkt  
Grotendeels bewolkt  
   Wind: WZW 16.7 km/h
Wind: WZW 16.7 km/h
Temperatuur: 10°C
Voelt als: 8°C
Dauwpunt: 1°C
Vochtigheid: 54%
Barometer: 1011 hPa
Bewolking: Grotendeels bewolkt
Zicht: meer dan 10 km
Bewolking: Grotendeels bewolkt 4100 ft
EDLV 021520Z 25009KT 9999 BKN041 10/01 Q1011
EHKD - De Kooy (navy), Netherlands
Afstand tot: W 144 km
Gewijzigd: 03-04-2020 09:55
Grotendeels bewolkt  
Grotendeels bewolkt  
   Wind: WZW 11.1 km/h
Wind: WZW 11.1 km/h
Temperatuur: 7°C
Voelt als: 5°C
Dauwpunt: 3°C
Vochtigheid: 76%
Barometer: 1014 hPa
Bewolking: Grotendeels bewolkt
Zicht: meer dan 10 km
Bewolking: Grotendeels bewolkt 6100 ft
EHKD 030755Z AUTO 25006KT 9999 BKN061 07/03 Q1014 BLU 27004KT CAVOK
EDLW - Dortmund/Wickede, Germany
Afstand tot: ZZO 150 km
Gewijzigd: 03-04-2020 09:50
Bewolking  
Bewolking  
   Wind: Westen 7.4 km/h
Wind: Westen 7.4 km/h
Temperatuur: 7°C
Voelt als: 6°C
Dauwpunt: 5°C
Vochtigheid: 87%
Barometer: 1013 hPa
Bewolking: Bewolking
Zicht: 9 km
Bewolking: Grotendeels bewolkt 1100 ft,
Bewolking 1400 ft
EDLW 030750Z 28004KT 230V330 9000 BKN011 OVC014 07/05 Q1013
EHVK - Volkel Rnlafb, Netherlands
Afstand tot: ZZW 149 km
Gewijzigd: 03-04-2020 09:55
Bewolking  
Bewolking  
   Wind: Westen 13 km/h
Wind: Westen 13 km/h
Temperatuur: 9°C
Voelt als: 7°C
Dauwpunt: 6°C
Vochtigheid: 82%
Barometer: 1014 hPa
Bewolking: Bewolking
Zicht: meer dan 10 km
Bewolking: Bewolking 5800 ft
EHVK 030755Z AUTO 27007KT 230V310 9999 OVC058 09/06 Q1014 BLU 26005KT 9999 FEW015 SCT045 BKN060
EDLW - Dortmund/Wickede, Germany
Afstand tot: ZZO 150 km
Gewijzigd: 03-04-2020 09:50
Bewolking  
Bewolking  
   Wind: Westen 7.4 km/h
Wind: Westen 7.4 km/h
Temperatuur: 7°C
Voelt als: 6°C
Dauwpunt: 5°C
Vochtigheid: 87%
Barometer: 1013 hPa
Bewolking: Bewolking
Zicht: 9 km
Bewolking: Grotendeels bewolkt 1100 ft,
Bewolking 1400 ft
EDLW 030750Z 28004KT 230V330 9000 BKN011 OVC014 07/05 Q1013
EHMG - L9-Ff-1 Sea, Netherlands
Afstand tot: NW 155 km
Gewijzigd: 03-04-2020 09:55
Gedeeltelijk bewolkt  
Gedeeltelijk bewolkt  
   Wind: Westen 24.1 km/h
Wind: Westen 24.1 km/h
Temperatuur: 6°C
Voelt als: 2°C
Dauwpunt: 1°C
Vochtigheid: 71%
Barometer: 1013 hPa
Bewolking: Gedeeltelijk bewolkt
Zicht: meer dan 10 km
Bewolking: Gedeeltelijk bewolkt
EHMG 030755Z AUTO 27013KT 9999 NSC 06/01 Q1013
ETHB - Buckeburg(Ger-Ar, Germany
Afstand tot: OZO 161 km
Gewijzigd: 03-04-2020 09:20
  
  
   Wind: WNW 9.3 km/h
Wind: WNW 9.3 km/h
Temperatuur: 6°C
Voelt als: 4°C
Dauwpunt: 1°C
Vochtigheid: 71%
Barometer: 1012 hPa
Zicht: 6 km
ETHB 030720Z AUTO 30005KT 6000 // ////// 06/01 Q1012 ///
ETMN - Nordholz (ger-Na, Germany
Afstand tot: NO 164 km
Gewijzigd: 03-04-2020 09:20
Gedeeltelijk bewolkt  
Gedeeltelijk bewolkt  
   Wind: Westen 29.6 km/h
Wind: Westen 29.6 km/h
Temperatuur: 5°C
Voelt als: 0°C
Dauwpunt: 0°C
Vochtigheid: 70%
Barometer: 1010 hPa
Bewolking: Gedeeltelijk bewolkt
Zicht: meer dan 10 km
Bewolking: Gedeeltelijk bewolkt 2200 ft,
Gedeeltelijk bewolkt 4000 ft
ETMN 030720Z 28016KT 9999 SCT022CB SCT040 05/00 Q1010 BLU+BLU+ TEMPO WHT
EDDL - Duesseldorf, Germany
Afstand tot: Z 165 km
Gewijzigd: 03-04-2020 09:50
Licht bewolkt  
Licht bewolkt  
   Wind: Westen 16.7 km/h
Wind: Westen 16.7 km/h
Temperatuur: 8°C
Voelt als: 5°C
Dauwpunt: 5°C
Vochtigheid: 82%
Barometer: 1014 hPa
Bewolking: Licht bewolkt
Zicht: meer dan 10 km
Bewolking: Licht bewolkt 1500 ft
EDDL 030750Z 27009KT 9999 FEW015 08/05 Q1014 NOSIG
EDLN - Monchengladbach, Germany
Afstand tot: Z 174 km
Gewijzigd: 03-04-2020 09:50
Helder  
Helder  
   Wind: Westen 9.3 km/h
Wind: Westen 9.3 km/h
Temperatuur: 9°C
Voelt als: 8°C
Dauwpunt: 5°C
Vochtigheid: 76%
Barometer: 1014 hPa
Zicht: meer dan 10 km
Bewolking: Helder
EDLN 030750Z 27005KT 220V340 CAVOK 09/05 Q1014

Script ontwikkeld door  Saratoga-weather.org Aangepast voor de template door  Weerstation Leuven

U vindt ons ook hier:

Het Weer Aktueel

European Weather Network

Weather Underground

Wetterpage 24

Apparatuur in gebruik:

Weerstation
Davis VP2

Weerprogramma
Meteohub

Hardware
RaspberryPI, Wireless Weather Envoy, MeteoStick, TP-Link MR3020

Leverancier
Weerhuisje.nl weerstations

Davis VP2

Meteohub

RaspberryPI, Wireless Weather Envoy, MeteoStick, TP-Link MR3020

Weerhuisje.nl weerstations